sensor_id;sensor_type;location;lat;lon;timestamp;temperature;humidity
22035;DHT22;11181;51.002;4.356;2023-03-04T00:01:32;8.70;99.90
22035;DHT22;11181;51.002;4.356;2023-03-04T00:03:59;8.60;99.90
22035;DHT22;11181;51.002;4.356;2023-03-04T00:06:26;8.50;99.90
22035;DHT22;11181;51.002;4.356;2023-03-04T00:08:53;8.60;99.90
22035;DHT22;11181;51.002;4.356;2023-03-04T00:11:20;8.40;99.90
22035;DHT22;11181;51.002;4.356;2023-03-04T00:13:48;8.50;99.90
22035;DHT22;11181;51.002;4.356;2023-03-04T00:16:15;8.50;99.90
22035;DHT22;11181;51.002;4.356;2023-03-04T00:18:42;8.60;99.90
22035;DHT22;11181;51.002;4.356;2023-03-04T00:21:09;8.60;99.90
22035;DHT22;11181;51.002;4.356;2023-03-04T00:23:36;8.70;99.90
22035;DHT22;11181;51.002;4.356;2023-03-04T00:26:05;8.70;99.90
22035;DHT22;11181;51.002;4.356;2023-03-04T00:28:34;8.90;99.90
22035;DHT22;11181;51.002;4.356;2023-03-04T00:31:02;9.00;99.90
22035;DHT22;11181;51.002;4.356;2023-03-04T00:33:29;9.00;99.90
22035;DHT22;11181;51.002;4.356;2023-03-04T00:35:56;9.10;99.90
22035;DHT22;11181;51.002;4.356;2023-03-04T00:38:23;9.10;99.90
22035;DHT22;11181;51.002;4.356;2023-03-04T00:40:50;9.10;99.90
22035;DHT22;11181;51.002;4.356;2023-03-04T00:43:17;9.20;99.90
22035;DHT22;11181;51.002;4.356;2023-03-04T00:45:44;9.40;99.90
22035;DHT22;11181;51.002;4.356;2023-03-04T00:48:12;9.50;99.90
22035;DHT22;11181;51.002;4.356;2023-03-04T00:50:41;9.60;99.90
22035;DHT22;11181;51.002;4.356;2023-03-04T00:53:08;9.70;99.90
22035;DHT22;11181;51.002;4.356;2023-03-04T00:55:35;9.70;99.90
22035;DHT22;11181;51.002;4.356;2023-03-04T00:58:02;9.60;99.90
22035;DHT22;11181;51.002;4.356;2023-03-04T01:00:29;9.50;99.90
22035;DHT22;11181;51.002;4.356;2023-03-04T01:02:56;9.40;99.90
22035;DHT22;11181;51.002;4.356;2023-03-04T01:05:24;9.30;99.90
22035;DHT22;11181;51.002;4.356;2023-03-04T01:07:51;9.30;99.90
22035;DHT22;11181;51.002;4.356;2023-03-04T01:10:18;9.20;99.90
22035;DHT22;11181;51.002;4.356;2023-03-04T01:12:45;9.40;99.90
22035;DHT22;11181;51.002;4.356;2023-03-04T01:15:13;9.40;99.90
22035;DHT22;11181;51.002;4.356;2023-03-04T01:17:40;9.50;99.90
22035;DHT22;11181;51.002;4.356;2023-03-04T01:20:08;9.50;99.90
22035;DHT22;11181;51.002;4.356;2023-03-04T01:22:37;9.20;99.90
22035;DHT22;11181;51.002;4.356;2023-03-04T01:25:04;9.20;99.90
22035;DHT22;11181;51.002;4.356;2023-03-04T01:27:32;9.30;99.90
22035;DHT22;11181;51.002;4.356;2023-03-04T01:29:58;9.40;99.90
22035;DHT22;11181;51.002;4.356;2023-03-04T01:32:25;9.30;99.90
22035;DHT22;11181;51.002;4.356;2023-03-04T01:34:52;9.20;99.90
22035;DHT22;11181;51.002;4.356;2023-03-04T01:37:19;9.30;99.90
22035;DHT22;11181;51.002;4.356;2023-03-04T01:39:47;9.40;99.90
22035;DHT22;11181;51.002;4.356;2023-03-04T01:42:17;9.40;99.90
22035;DHT22;11181;51.002;4.356;2023-03-04T01:44:46;9.50;99.90
22035;DHT22;11181;51.002;4.356;2023-03-04T01:47:14;9.40;99.90
22035;DHT22;11181;51.002;4.356;2023-03-04T01:49:41;9.30;99.90
22035;DHT22;11181;51.002;4.356;2023-03-04T01:52:11;8.90;99.90
22035;DHT22;11181;51.002;4.356;2023-03-04T01:54:38;8.80;99.90
22035;DHT22;11181;51.002;4.356;2023-03-04T01:57:15;8.70;99.90
22035;DHT22;11181;51.002;4.356;2023-03-04T01:59:43;9.00;99.90
22035;DHT22;11181;51.002;4.356;2023-03-04T02:02:10;9.20;99.90
22035;DHT22;11181;51.002;4.356;2023-03-04T02:04:38;9.40;99.90
22035;DHT22;11181;51.002;4.356;2023-03-04T02:07:06;9.60;99.90
22035;DHT22;11181;51.002;4.356;2023-03-04T02:09:34;9.70;99.90
22035;DHT22;11181;51.002;4.356;2023-03-04T02:12:01;9.80;99.90
22035;DHT22;11181;51.002;4.356;2023-03-04T02:14:30;9.90;99.90
22035;DHT22;11181;51.002;4.356;2023-03-04T02:16:57;10.00;99.90
22035;DHT22;11181;51.002;4.356;2023-03-04T02:19:33;10.00;99.90
22035;DHT22;11181;51.002;4.356;2023-03-04T02:22:03;10.00;99.90
22035;DHT22;11181;51.002;4.356;2023-03-04T02:24:33;10.10;99.90
22035;DHT22;11181;51.002;4.356;2023-03-04T02:27:03;10.00;99.90
22035;DHT22;11181;51.002;4.356;2023-03-04T02:29:30;10.10;99.90
22035;DHT22;11181;51.002;4.356;2023-03-04T02:31:57;10.10;99.90
22035;DHT22;11181;51.002;4.356;2023-03-04T02:34:27;10.10;99.90
22035;DHT22;11181;51.002;4.356;2023-03-04T02:36:55;10.10;99.90
22035;DHT22;11181;51.002;4.356;2023-03-04T02:39:28;10.10;99.90
22035;DHT22;11181;51.002;4.356;2023-03-04T02:41:56;10.00;99.90
22035;DHT22;11181;51.002;4.356;2023-03-04T02:44:27;10.00;99.90
22035;DHT22;11181;51.002;4.356;2023-03-04T02:46:54;10.00;99.90
22035;DHT22;11181;51.002;4.356;2023-03-04T02:49:22;10.00;99.90
22035;DHT22;11181;51.002;4.356;2023-03-04T02:51:51;10.00;99.90
22035;DHT22;11181;51.002;4.356;2023-03-04T02:54:21;10.00;99.90
22035;DHT22;11181;51.002;4.356;2023-03-04T02:56:50;10.00;99.90
22035;DHT22;11181;51.002;4.356;2023-03-04T02:59:18;10.10;99.90
22035;DHT22;11181;51.002;4.356;2023-03-04T03:01:46;10.10;99.90
22035;DHT22;11181;51.002;4.356;2023-03-04T03:04:13;10.10;99.90
22035;DHT22;11181;51.002;4.356;2023-03-04T03:06:40;10.10;99.90
22035;DHT22;11181;51.002;4.356;2023-03-04T03:09:08;10.10;99.90
22035;DHT22;11181;51.002;4.356;2023-03-04T03:11:35;10.00;99.90
22035;DHT22;11181;51.002;4.356;2023-03-04T03:14:02;10.00;99.90
22035;DHT22;11181;51.002;4.356;2023-03-04T03:16:29;10.00;99.90
22035;DHT22;11181;51.002;4.356;2023-03-04T03:18:57;10.00;99.90
22035;DHT22;11181;51.002;4.356;2023-03-04T03:21:24;10.00;99.90
22035;DHT22;11181;51.002;4.356;2023-03-04T03:23:51;10.00;99.90
22035;DHT22;11181;51.002;4.356;2023-03-04T03:26:18;10.00;99.90
22035;DHT22;11181;51.002;4.356;2023-03-04T03:28:46;10.00;99.90
22035;DHT22;11181;51.002;4.356;2023-03-04T03:31:13;10.00;99.90
22035;DHT22;11181;51.002;4.356;2023-03-04T03:33:40;10.00;99.90
22035;DHT22;11181;51.002;4.356;2023-03-04T03:36:09;10.00;99.90
22035;DHT22;11181;51.002;4.356;2023-03-04T03:38:36;10.00;99.90
22035;DHT22;11181;51.002;4.356;2023-03-04T03:41:03;10.00;99.90
22035;DHT22;11181;51.002;4.356;2023-03-04T03:43:30;10.00;99.90
22035;DHT22;11181;51.002;4.356;2023-03-04T03:45:57;10.00;99.90
22035;DHT22;11181;51.002;4.356;2023-03-04T03:48:24;10.10;99.90
22035;DHT22;11181;51.002;4.356;2023-03-04T03:50:51;10.10;99.90
22035;DHT22;11181;51.002;4.356;2023-03-04T03:53:19;10.10;99.90
22035;DHT22;11181;51.002;4.356;2023-03-04T03:55:46;10.10;99.90
22035;DHT22;11181;51.002;4.356;2023-03-04T03:58:13;10.00;99.90
22035;DHT22;11181;51.002;4.356;2023-03-04T04:00:40;10.00;99.90
22035;DHT22;11181;51.002;4.356;2023-03-04T04:03:07;10.00;99.90
22035;DHT22;11181;51.002;4.356;2023-03-04T04:05:34;10.00;99.90
22035;DHT22;11181;51.002;4.356;2023-03-04T04:08:01;9.60;99.90
22035;DHT22;11181;51.002;4.356;2023-03-04T04:10:30;9.10;99.90
22035;DHT22;11181;51.002;4.356;2023-03-04T04:12:57;8.80;99.90
22035;DHT22;11181;51.002;4.356;2023-03-04T04:15:23;8.50;99.90
22035;DHT22;11181;51.002;4.356;2023-03-04T04:17:50;8.00;99.90
22035;DHT22;11181;51.002;4.356;2023-03-04T04:20:17;8.10;99.90
22035;DHT22;11181;51.002;4.356;2023-03-04T04:22:44;7.90;99.90
22035;DHT22;11181;51.002;4.356;2023-03-04T04:25:11;7.90;99.90
22035;DHT22;11181;51.002;4.356;2023-03-04T04:27:39;7.90;99.90
22035;DHT22;11181;51.002;4.356;2023-03-04T04:30:07;7.80;99.90
22035;DHT22;11181;51.002;4.356;2023-03-04T04:32:34;7.50;99.90
22035;DHT22;11181;51.002;4.356;2023-03-04T04:35:01;7.30;99.90
22035;DHT22;11181;51.002;4.356;2023-03-04T04:37:28;7.20;99.90
22035;DHT22;11181;51.002;4.356;2023-03-04T04:39:55;7.00;99.90
22035;DHT22;11181;51.002;4.356;2023-03-04T04:42:23;7.10;99.90
22035;DHT22;11181;51.002;4.356;2023-03-04T04:44:51;7.40;99.90
22035;DHT22;11181;51.002;4.356;2023-03-04T04:47:18;7.50;99.90
22035;DHT22;11181;51.002;4.356;2023-03-04T04:49:45;7.70;99.90
22035;DHT22;11181;51.002;4.356;2023-03-04T04:52:12;8.00;99.90
22035;DHT22;11181;51.002;4.356;2023-03-04T04:54:39;8.10;99.90
22035;DHT22;11181;51.002;4.356;2023-03-04T04:57:05;8.20;99.90
22035;DHT22;11181;51.002;4.356;2023-03-04T04:59:32;8.30;99.90
22035;DHT22;11181;51.002;4.356;2023-03-04T05:02:01;8.40;99.90
22035;DHT22;11181;51.002;4.356;2023-03-04T05:04:28;8.40;99.90
22035;DHT22;11181;51.002;4.356;2023-03-04T05:06:54;8.50;99.90
22035;DHT22;11181;51.002;4.356;2023-03-04T05:09:21;8.60;99.90
22035;DHT22;11181;51.002;4.356;2023-03-04T05:11:48;8.60;99.90
22035;DHT22;11181;51.002;4.356;2023-03-04T05:14:15;8.40;99.90
22035;DHT22;11181;51.002;4.356;2023-03-04T05:16:42;8.00;99.90
22035;DHT22;11181;51.002;4.356;2023-03-04T05:19:11;7.90;99.90
22035;DHT22;11181;51.002;4.356;2023-03-04T05:21:38;7.80;99.90
22035;DHT22;11181;51.002;4.356;2023-03-04T05:24:05;7.80;99.90
22035;DHT22;11181;51.002;4.356;2023-03-04T05:26:32;7.90;99.90
22035;DHT22;11181;51.002;4.356;2023-03-04T05:28:59;8.10;99.90
22035;DHT22;11181;51.002;4.356;2023-03-04T05:31:26;8.20;99.90
22035;DHT22;11181;51.002;4.356;2023-03-04T05:33:53;8.50;99.90
22035;DHT22;11181;51.002;4.356;2023-03-04T05:36:22;8.60;99.90
22035;DHT22;11181;51.002;4.356;2023-03-04T05:38:48;8.90;99.90
22035;DHT22;11181;51.002;4.356;2023-03-04T05:41:15;9.10;99.90
22035;DHT22;11181;51.002;4.356;2023-03-04T05:43:45;9.10;99.90
22035;DHT22;11181;51.002;4.356;2023-03-04T05:46:13;9.20;99.90
22035;DHT22;11181;51.002;4.356;2023-03-04T05:48:40;9.30;99.90
22035;DHT22;11181;51.002;4.356;2023-03-04T05:51:07;9.30;99.90
22035;DHT22;11181;51.002;4.356;2023-03-04T05:53:36;9.20;99.90
22035;DHT22;11181;51.002;4.356;2023-03-04T05:56:07;9.30;99.90
22035;DHT22;11181;51.002;4.356;2023-03-04T05:58:34;9.40;99.90
22035;DHT22;11181;51.002;4.356;2023-03-04T06:01:00;9.50;99.90
22035;DHT22;11181;51.002;4.356;2023-03-04T06:03:28;9.60;99.90
22035;DHT22;11181;51.002;4.356;2023-03-04T06:05:55;9.60;99.90
22035;DHT22;11181;51.002;4.356;2023-03-04T06:08:23;9.50;99.90
22035;DHT22;11181;51.002;4.356;2023-03-04T06:10:53;9.60;99.90
22035;DHT22;11181;51.002;4.356;2023-03-04T06:13:21;9.50;99.90
22035;DHT22;11181;51.002;4.356;2023-03-04T06:15:53;9.50;99.90
22035;DHT22;11181;51.002;4.356;2023-03-04T06:18:20;9.50;99.90
22035;DHT22;11181;51.002;4.356;2023-03-04T06:20:47;9.40;99.90
22035;DHT22;11181;51.002;4.356;2023-03-04T06:23:14;9.50;99.90
22035;DHT22;11181;51.002;4.356;2023-03-04T06:25:41;9.60;99.90
22035;DHT22;11181;51.002;4.356;2023-03-04T06:28:10;9.70;99.90
22035;DHT22;11181;51.002;4.356;2023-03-04T06:30:36;9.80;99.90
22035;DHT22;11181;51.002;4.356;2023-03-04T06:33:03;9.90;99.90
22035;DHT22;11181;51.002;4.356;2023-03-04T06:35:30;9.90;99.90
22035;DHT22;11181;51.002;4.356;2023-03-04T06:37:57;10.00;99.90
22035;DHT22;11181;51.002;4.356;2023-03-04T06:40:24;10.00;99.90
22035;DHT22;11181;51.002;4.356;2023-03-04T06:42:51;10.00;99.90
22035;DHT22;11181;51.002;4.356;2023-03-04T06:45:19;10.00;99.90
22035;DHT22;11181;51.002;4.356;2023-03-04T06:47:46;10.00;99.90
22035;DHT22;11181;51.002;4.356;2023-03-04T06:50:13;10.00;99.90
22035;DHT22;11181;51.002;4.356;2023-03-04T06:52:40;10.00;99.90
22035;DHT22;11181;51.002;4.356;2023-03-04T06:55:08;10.00;99.90
22035;DHT22;11181;51.002;4.356;2023-03-04T06:57:37;10.00;99.90
22035;DHT22;11181;51.002;4.356;2023-03-04T07:00:06;10.00;99.90
22035;DHT22;11181;51.002;4.356;2023-03-04T07:02:34;9.90;99.90
22035;DHT22;11181;51.002;4.356;2023-03-04T07:05:01;9.90;99.90
22035;DHT22;11181;51.002;4.356;2023-03-04T07:07:28;9.80;99.90
22035;DHT22;11181;51.002;4.356;2023-03-04T07:09:55;9.30;99.90
22035;DHT22;11181;51.002;4.356;2023-03-04T07:12:22;9.00;99.90
22035;DHT22;11181;51.002;4.356;2023-03-04T07:14:49;8.80;99.90
22035;DHT22;11181;51.002;4.356;2023-03-04T07:17:16;8.70;99.90
22035;DHT22;11181;51.002;4.356;2023-03-04T07:19:45;8.90;99.90
22035;DHT22;11181;51.002;4.356;2023-03-04T07:22:12;8.90;99.90
22035;DHT22;11181;51.002;4.356;2023-03-04T07:24:38;8.90;99.90
22035;DHT22;11181;51.002;4.356;2023-03-04T07:27:05;8.80;99.90
22035;DHT22;11181;51.002;4.356;2023-03-04T07:29:32;8.80;99.90
22035;DHT22;11181;51.002;4.356;2023-03-04T07:31:59;8.90;99.90
22035;DHT22;11181;51.002;4.356;2023-03-04T07:34:26;8.90;99.90
22035;DHT22;11181;51.002;4.356;2023-03-04T07:36:54;9.00;99.90
22035;DHT22;11181;51.002;4.356;2023-03-04T07:39:21;9.00;99.90
22035;DHT22;11181;51.002;4.356;2023-03-04T07:41:48;8.90;99.90
22035;DHT22;11181;51.002;4.356;2023-03-04T07:44:15;8.90;99.90
22035;DHT22;11181;51.002;4.356;2023-03-04T07:46:42;8.70;99.90
22035;DHT22;11181;51.002;4.356;2023-03-04T07:49:11;8.60;99.90
22035;DHT22;11181;51.002;4.356;2023-03-04T07:51:38;8.60;99.90
22035;DHT22;11181;51.002;4.356;2023-03-04T07:54:06;8.70;99.90
22035;DHT22;11181;51.002;4.356;2023-03-04T07:56:33;8.70;99.90
22035;DHT22;11181;51.002;4.356;2023-03-04T07:59:01;8.90;99.90
22035;DHT22;11181;51.002;4.356;2023-03-04T08:01:30;9.10;99.90
22035;DHT22;11181;51.002;4.356;2023-03-04T08:03:57;9.20;99.90
22035;DHT22;11181;51.002;4.356;2023-03-04T08:06:25;9.30;99.90
22035;DHT22;11181;51.002;4.356;2023-03-04T08:08:56;9.30;99.90
22035;DHT22;11181;51.002;4.356;2023-03-04T08:11:25;9.40;99.90
22035;DHT22;11181;51.002;4.356;2023-03-04T08:13:53;9.20;99.90
22035;DHT22;11181;51.002;4.356;2023-03-04T08:16:21;8.80;99.90
22035;DHT22;11181;51.002;4.356;2023-03-04T08:18:50;8.60;99.90
22035;DHT22;11181;51.002;4.356;2023-03-04T08:21:19;8.60;99.90
22035;DHT22;11181;51.002;4.356;2023-03-04T08:23:46;8.50;99.90
22035;DHT22;11181;51.002;4.356;2023-03-04T08:26:17;8.30;99.90
22035;DHT22;11181;51.002;4.356;2023-03-04T08:28:47;8.30;99.90
22035;DHT22;11181;51.002;4.356;2023-03-04T08:31:15;8.40;99.90
22035;DHT22;11181;51.002;4.356;2023-03-04T08:33:43;8.40;99.90
22035;DHT22;11181;51.002;4.356;2023-03-04T08:36:11;8.60;99.90
22035;DHT22;11181;51.002;4.356;2023-03-04T08:38:38;8.80;99.90
22035;DHT22;11181;51.002;4.356;2023-03-04T08:41:05;8.90;99.90
22035;DHT22;11181;51.002;4.356;2023-03-04T08:43:32;9.10;99.90
22035;DHT22;11181;51.002;4.356;2023-03-04T08:46:01;9.00;99.90
22035;DHT22;11181;51.002;4.356;2023-03-04T08:48:29;8.60;99.90
22035;DHT22;11181;51.002;4.356;2023-03-04T08:50:57;8.70;99.90
22035;DHT22;11181;51.002;4.356;2023-03-04T08:53:24;8.80;99.90
22035;DHT22;11181;51.002;4.356;2023-03-04T08:55:51;8.90;99.90
22035;DHT22;11181;51.002;4.356;2023-03-04T08:58:19;8.90;99.90
22035;DHT22;11181;51.002;4.356;2023-03-04T09:00:47;8.80;99.90
22035;DHT22;11181;51.002;4.356;2023-03-04T09:03:18;8.80;99.90
22035;DHT22;11181;51.002;4.356;2023-03-04T09:05:46;8.90;99.90
22035;DHT22;11181;51.002;4.356;2023-03-04T09:08:14;9.00;99.90
22035;DHT22;11181;51.002;4.356;2023-03-04T09:10:42;9.00;99.90
22035;DHT22;11181;51.002;4.356;2023-03-04T09:13:09;8.90;99.90
22035;DHT22;11181;51.002;4.356;2023-03-04T09:15:37;9.00;99.90
22035;DHT22;11181;51.002;4.356;2023-03-04T09:18:05;9.00;99.90
22035;DHT22;11181;51.002;4.356;2023-03-04T09:20:33;9.00;99.90
22035;DHT22;11181;51.002;4.356;2023-03-04T09:23:00;8.80;99.90
22035;DHT22;11181;51.002;4.356;2023-03-04T09:25:27;8.70;99.90
22035;DHT22;11181;51.002;4.356;2023-03-04T09:27:54;8.50;99.90
22035;DHT22;11181;51.002;4.356;2023-03-04T09:30:22;8.60;99.90
22035;DHT22;11181;51.002;4.356;2023-03-04T09:32:49;8.60;99.90
22035;DHT22;11181;51.002;4.356;2023-03-04T09:35:16;8.70;99.90
22035;DHT22;11181;51.002;4.356;2023-03-04T09:37:44;8.90;99.90
22035;DHT22;11181;51.002;4.356;2023-03-04T09:40:17;8.90;99.90
22035;DHT22;11181;51.002;4.356;2023-03-04T09:42:47;8.80;99.90
22035;DHT22;11181;51.002;4.356;2023-03-04T09:45:17;8.50;99.90
22035;DHT22;11181;51.002;4.356;2023-03-04T09:47:45;8.50;99.90
22035;DHT22;11181;51.002;4.356;2023-03-04T09:50:13;8.60;99.90
22035;DHT22;11181;51.002;4.356;2023-03-04T09:52:52;8.70;99.90
22035;DHT22;11181;51.002;4.356;2023-03-04T09:55:24;8.60;99.90
22035;DHT22;11181;51.002;4.356;2023-03-04T09:57:57;8.60;99.90
22035;DHT22;11181;51.002;4.356;2023-03-04T10:00:33;8.40;99.90
22035;DHT22;11181;51.002;4.356;2023-03-04T10:03:11;8.40;99.90
22035;DHT22;11181;51.002;4.356;2023-03-04T10:05:45;8.50;99.90
22035;DHT22;11181;51.002;4.356;2023-03-04T10:08:35;8.60;99.90
22035;DHT22;11181;51.002;4.356;2023-03-04T10:11:10;8.60;99.90
22035;DHT22;11181;51.002;4.356;2023-03-04T10:13:48;8.50;99.90
22035;DHT22;11181;51.002;4.356;2023-03-04T10:16:20;8.50;99.90
22035;DHT22;11181;51.002;4.356;2023-03-04T10:18:52;8.40;99.90
22035;DHT22;11181;51.002;4.356;2023-03-04T10:21:25;8.30;99.90
22035;DHT22;11181;51.002;4.356;2023-03-04T10:23:56;8.30;99.90
22035;DHT22;11181;51.002;4.356;2023-03-04T10:26:28;8.30;99.90
22035;DHT22;11181;51.002;4.356;2023-03-04T10:28:57;8.40;99.90
22035;DHT22;11181;51.002;4.356;2023-03-04T10:31:31;8.40;99.90
22035;DHT22;11181;51.002;4.356;2023-03-04T10:33:59;8.50;99.90
22035;DHT22;11181;51.002;4.356;2023-03-04T10:36:38;8.80;99.90
22035;DHT22;11181;51.002;4.356;2023-03-04T10:39:11;8.80;99.90
22035;DHT22;11181;51.002;4.356;2023-03-04T10:41:42;9.00;99.90
22035;DHT22;11181;51.002;4.356;2023-03-04T10:44:14;8.90;99.90
22035;DHT22;11181;51.002;4.356;2023-03-04T10:46:44;8.80;99.90
22035;DHT22;11181;51.002;4.356;2023-03-04T10:49:12;8.70;99.90
22035;DHT22;11181;51.002;4.356;2023-03-04T10:51:44;8.80;99.90
22035;DHT22;11181;51.002;4.356;2023-03-04T10:54:23;8.90;99.90
22035;DHT22;11181;51.002;4.356;2023-03-04T10:56:59;9.10;99.90
22035;DHT22;11181;51.002;4.356;2023-03-04T10:59:40;9.30;99.90
22035;DHT22;11181;51.002;4.356;2023-03-04T11:02:24;9.00;99.90
22035;DHT22;11181;51.002;4.356;2023-03-04T11:04:54;9.10;99.90
22035;DHT22;11181;51.002;4.356;2023-03-04T11:07:23;9.10;99.90
22035;DHT22;11181;51.002;4.356;2023-03-04T11:09:52;9.30;99.90
22035;DHT22;11181;51.002;4.356;2023-03-04T11:12:21;9.40;99.90
22035;DHT22;11181;51.002;4.356;2023-03-04T11:14:57;9.40;99.90
22035;DHT22;11181;51.002;4.356;2023-03-04T11:17:26;9.60;99.90
22035;DHT22;11181;51.002;4.356;2023-03-04T11:20:00;9.80;99.90
22035;DHT22;11181;51.002;4.356;2023-03-04T11:22:30;9.90;99.90
22035;DHT22;11181;51.002;4.356;2023-03-04T11:25:02;10.00;99.90
22035;DHT22;11181;51.002;4.356;2023-03-04T11:27:37;9.80;99.90
22035;DHT22;11181;51.002;4.356;2023-03-04T11:30:24;9.50;99.90
22035;DHT22;11181;51.002;4.356;2023-03-04T11:32:55;9.30;99.90
22035;DHT22;11181;51.002;4.356;2023-03-04T11:35:32;9.30;99.90
22035;DHT22;11181;51.002;4.356;2023-03-04T11:38:04;9.40;99.90
22035;DHT22;11181;51.002;4.356;2023-03-04T11:40:39;9.60;99.90
22035;DHT22;11181;51.002;4.356;2023-03-04T11:43:13;9.80;99.90
22035;DHT22;11181;51.002;4.356;2023-03-04T11:45:59;10.00;99.90
22035;DHT22;11181;51.002;4.356;2023-03-04T11:48:38;9.90;99.90
22035;DHT22;11181;51.002;4.356;2023-03-04T11:51:10;9.70;99.90
22035;DHT22;11181;51.002;4.356;2023-03-04T11:53:43;9.40;99.90
22035;DHT22;11181;51.002;4.356;2023-03-04T11:56:29;9.20;99.90
22035;DHT22;11181;51.002;4.356;2023-03-04T11:59:15;9.10;99.90
22035;DHT22;11181;51.002;4.356;2023-03-04T12:01:54;9.20;99.90
22035;DHT22;11181;51.002;4.356;2023-03-04T12:04:33;9.50;99.90
22035;DHT22;11181;51.002;4.356;2023-03-04T12:07:12;9.90;99.90
22035;DHT22;11181;51.002;4.356;2023-03-04T12:09:52;10.20;99.90
22035;DHT22;11181;51.002;4.356;2023-03-04T12:12:46;10.30;99.90
22035;DHT22;11181;51.002;4.356;2023-03-04T12:15:19;10.50;99.90
22035;DHT22;11181;51.002;4.356;2023-03-04T12:18:02;10.40;99.90
22035;DHT22;11181;51.002;4.356;2023-03-04T12:20:51;10.40;99.90
22035;DHT22;11181;51.002;4.356;2023-03-04T12:23:39;10.60;99.90
22035;DHT22;11181;51.002;4.356;2023-03-04T12:26:17;10.70;99.90
22035;DHT22;11181;51.002;4.356;2023-03-04T12:28:56;10.60;99.90
22035;DHT22;11181;51.002;4.356;2023-03-04T12:31:35;10.20;99.90
22035;DHT22;11181;51.002;4.356;2023-03-04T12:34:31;9.90;99.90
22035;DHT22;11181;51.002;4.356;2023-03-04T12:40:11;10.00;99.90
22035;DHT22;11181;51.002;4.356;2023-03-04T12:42:51;9.80;99.90
22035;DHT22;11181;51.002;4.356;2023-03-04T12:45:31;9.70;99.90
22035;DHT22;11181;51.002;4.356;2023-03-04T12:48:08;9.60;99.90
22035;DHT22;11181;51.002;4.356;2023-03-04T12:50:43;9.50;99.90
22035;DHT22;11181;51.002;4.356;2023-03-04T12:53:20;9.50;99.90
22035;DHT22;11181;51.002;4.356;2023-03-04T12:55:55;9.70;99.90
22035;DHT22;11181;51.002;4.356;2023-03-04T12:58:25;9.70;99.90
22035;DHT22;11181;51.002;4.356;2023-03-04T13:01:00;9.80;99.90
22035;DHT22;11181;51.002;4.356;2023-03-04T13:03:36;9.80;99.90
22035;DHT22;11181;51.002;4.356;2023-03-04T13:06:19;9.80;99.90
22035;DHT22;11181;51.002;4.356;2023-03-04T13:08:55;9.90;99.90
22035;DHT22;11181;51.002;4.356;2023-03-04T13:11:42;9.80;99.90
22035;DHT22;11181;51.002;4.356;2023-03-04T13:14:26;9.70;99.90
22035;DHT22;11181;51.002;4.356;2023-03-04T13:16:57;9.80;99.90
22035;DHT22;11181;51.002;4.356;2023-03-04T13:19:47;9.90;99.90
22035;DHT22;11181;51.002;4.356;2023-03-04T13:22:44;9.90;99.90
22035;DHT22;11181;51.002;4.356;2023-03-04T13:25:33;10.00;99.90
22035;DHT22;11181;51.002;4.356;2023-03-04T13:28:33;10.30;99.90
22035;DHT22;11181;51.002;4.356;2023-03-04T13:31:10;10.50;99.90
22035;DHT22;11181;51.002;4.356;2023-03-04T13:34:01;10.70;99.90
22035;DHT22;11181;51.002;4.356;2023-03-04T13:36:53;10.60;99.90
22035;DHT22;11181;51.002;4.356;2023-03-04T13:39:44;10.50;99.90
22035;DHT22;11181;51.002;4.356;2023-03-04T13:42:40;10.10;99.90
22035;DHT22;11181;51.002;4.356;2023-03-04T13:45:29;10.00;99.90
22035;DHT22;11181;51.002;4.356;2023-03-04T13:47:56;9.80;99.90
22035;DHT22;11181;51.002;4.356;2023-03-04T13:50:36;9.80;99.90
22035;DHT22;11181;51.002;4.356;2023-03-04T13:56:10;9.70;99.90
22035;DHT22;11181;51.002;4.356;2023-03-04T13:58:38;9.70;99.90
22035;DHT22;11181;51.002;4.356;2023-03-04T14:01:23;9.80;99.90
22035;DHT22;11181;51.002;4.356;2023-03-04T14:03:50;10.00;99.90
22035;DHT22;11181;51.002;4.356;2023-03-04T14:06:19;10.00;99.90
22035;DHT22;11181;51.002;4.356;2023-03-04T14:08:48;10.10;99.90
22035;DHT22;11181;51.002;4.356;2023-03-04T14:11:23;10.00;99.90
22035;DHT22;11181;51.002;4.356;2023-03-04T14:13:50;9.80;99.90
22035;DHT22;11181;51.002;4.356;2023-03-04T14:16:19;9.90;99.90
22035;DHT22;11181;51.002;4.356;2023-03-04T14:18:56;9.90;99.90
22035;DHT22;11181;51.002;4.356;2023-03-04T14:21:25;9.80;99.90
22035;DHT22;11181;51.002;4.356;2023-03-04T14:24:03;9.70;99.90
22035;DHT22;11181;51.002;4.356;2023-03-04T14:26:31;9.50;99.90
22035;DHT22;11181;51.002;4.356;2023-03-04T14:28:59;9.50;99.90
22035;DHT22;11181;51.002;4.356;2023-03-04T14:31:29;9.20;99.90
22035;DHT22;11181;51.002;4.356;2023-03-04T14:33:58;9.10;99.90
22035;DHT22;11181;51.002;4.356;2023-03-04T14:36:30;9.00;99.90
22035;DHT22;11181;51.002;4.356;2023-03-04T14:38:59;9.00;99.90
22035;DHT22;11181;51.002;4.356;2023-03-04T14:41:30;9.00;99.90
22035;DHT22;11181;51.002;4.356;2023-03-04T14:44:03;8.80;99.90
22035;DHT22;11181;51.002;4.356;2023-03-04T14:46:36;8.70;99.90
22035;DHT22;11181;51.002;4.356;2023-03-04T14:49:05;8.60;99.90
22035;DHT22;11181;51.002;4.356;2023-03-04T14:51:40;8.60;99.90
22035;DHT22;11181;51.002;4.356;2023-03-04T14:54:32;8.70;99.90
22035;DHT22;11181;51.002;4.356;2023-03-04T14:57:00;8.90;99.90
22035;DHT22;11181;51.002;4.356;2023-03-04T14:59:32;9.00;99.90
22035;DHT22;11181;51.002;4.356;2023-03-04T15:02:18;9.10;99.90
22035;DHT22;11181;51.002;4.356;2023-03-04T15:04:46;9.20;99.90
22035;DHT22;11181;51.002;4.356;2023-03-04T15:07:17;9.10;99.90
22035;DHT22;11181;51.002;4.356;2023-03-04T15:09:52;9.00;99.90
22035;DHT22;11181;51.002;4.356;2023-03-04T15:12:26;9.10;99.90
22035;DHT22;11181;51.002;4.356;2023-03-04T15:14:55;9.10;99.90
22035;DHT22;11181;51.002;4.356;2023-03-04T15:17:26;9.20;99.90
22035;DHT22;11181;51.002;4.356;2023-03-04T15:19:58;9.20;99.90
22035;DHT22;11181;51.002;4.356;2023-03-04T15:22:26;9.20;99.90
22035;DHT22;11181;51.002;4.356;2023-03-04T15:24:54;9.20;99.90
22035;DHT22;11181;51.002;4.356;2023-03-04T15:27:22;9.20;99.90
22035;DHT22;11181;51.002;4.356;2023-03-04T15:29:50;9.30;99.90
22035;DHT22;11181;51.002;4.356;2023-03-04T15:32:21;9.30;99.90
22035;DHT22;11181;51.002;4.356;2023-03-04T15:34:48;9.40;99.90
22035;DHT22;11181;51.002;4.356;2023-03-04T15:37:19;9.40;99.90
22035;DHT22;11181;51.002;4.356;2023-03-04T15:39:49;9.40;99.90
22035;DHT22;11181;51.002;4.356;2023-03-04T15:42:17;9.30;99.90
22035;DHT22;11181;51.002;4.356;2023-03-04T15:44:44;9.10;99.90
22035;DHT22;11181;51.002;4.356;2023-03-04T15:47:11;9.00;99.90
22035;DHT22;11181;51.002;4.356;2023-03-04T15:49:38;9.00;99.90
22035;DHT22;11181;51.002;4.356;2023-03-04T15:52:08;9.00;99.90
22035;DHT22;11181;51.002;4.356;2023-03-04T15:54:38;9.00;99.90
22035;DHT22;11181;51.002;4.356;2023-03-04T15:57:12;9.00;99.90
22035;DHT22;11181;51.002;4.356;2023-03-04T15:59:41;9.00;99.90
22035;DHT22;11181;51.002;4.356;2023-03-04T16:02:20;8.90;99.90
22035;DHT22;11181;51.002;4.356;2023-03-04T16:04:47;8.90;99.90
22035;DHT22;11181;51.002;4.356;2023-03-04T16:07:16;8.90;99.90
22035;DHT22;11181;51.002;4.356;2023-03-04T16:09:46;8.90;99.90